ePrivacy and GPDR Cookie Consent by Cookie Consent
EmailTwitter


Observations de surface / France / LFBO (07630)

Régions: Québec | Canada | États-Unis | Europe | France | UK | Ailleurs
Station
Affichage
Infos & localisation pour LFBO (07630) | Aide pour décoder les METARs

Observations prises le 2022-07-03 à 05H30 UTC à TOULOUSE/BLAGNAC, FR (LFBO)

Température: 19.0 Celsius

Point de rosée: 15.0 Celsius

Humidité relative: 78%

Indice Humidex 23.

Vents: Ouest à 13 km/h ou 7 noeuds.

Pression au niveau moyen de la mer: 102.00 kilopascals.

Observation METAR:

LFBO 030530Z AUTO 28007KT CAVOK 19/15 Q1020 NOSIG=